Time;durP1;ratioP1;P1;durP2;ratioP2;P2;SDS_P1;SDS_P2;PMS_P1;PMS_P2;Temp;Humidity;BMP_temperature;BMP_pressure;BME280_temperature;BME280_humidity;BME280_pressure;Samples;Min_cycle;Max_cycle;Signal;HPM_P1;HPM_P2
2023/11/18 00:01:32;;;;;;;;;;;;;;;11.61;68.85;98638.13;5075580;28;19916;-75
2023/11/18 00:03:57;;;;;;;;;;;;;;;11.63;68.26;98633.47;5075363;28;19974;-76
2023/11/18 00:06:22;;;;;;;;;;;;;;;11.63;68.72;98633.47;5075328;28;19920;-76
2023/11/18 00:08:48;;;;;;;;;;;;;;;11.61;69.01;98630.22;5057336;28;20007;-77
2023/11/18 00:11:13;;;;;;;;;;;;;;;11.62;69.90;98628.38;5075191;28;19916;-76
2023/11/18 00:13:38;;;;;;;;;;;;;;;11.59;70.16;98626.97;5075008;28;20389;-76
2023/11/18 00:16:05;;;;;;;;;;;;;;;11.56;70.27;98618.63;5074900;28;19912;-76
2023/11/18 00:18:31;;;;;;;;;;;;;;;11.54;71.52;98616.19;5075275;28;19920;-75
2023/11/18 00:20:57;;;;;;;;;;;;;;;11.52;70.87;98609.50;5075145;28;19968;-75
2023/11/18 00:23:22;;;;;;;;;;;;;;;11.51;70.90;98618.44;5074993;28;19948;-76
2023/11/18 00:25:48;;;;;;;;;;;;;;;11.48;70.67;98616.22;5075194;28;19950;-75
2023/11/18 00:28:13;;;;;;;;;;;;;;;11.49;70.97;98612.53;5073831;28;20332;-76
2023/11/18 00:30:38;;;;;;;;;;;;;;;11.51;69.82;98606.03;5073458;28;19915;-77
2023/11/18 00:33:03;;;;;;;;;;;;;;;11.56;69.60;98606.22;5075007;28;20105;-76
2023/11/18 00:35:31;;;;;;;;;;;;;;;11.57;70.15;98607.84;5056855;28;20393;-76
2023/11/18 00:37:58;;;;;;;;;;;;;;;11.54;71.51;98604.81;5056898;28;19919;-75
2023/11/18 00:40:23;;;;;;;;;;;;;;;11.51;70.35;98602.56;5074556;28;19923;-75
2023/11/18 00:42:48;;;;;;;;;;;;;;;11.50;70.27;98603.59;5074491;28;19918;-75
2023/11/18 00:45:14;;;;;;;;;;;;;;;11.48;71.60;98603.81;5056746;28;19963;-74
2023/11/18 00:47:41;;;;;;;;;;;;;;;11.48;71.37;98608.28;5074757;28;19999;-75
2023/11/18 00:50:08;;;;;;;;;;;;;;;11.48;70.42;98617.03;5075012;28;19912;-77
2023/11/18 00:52:33;;;;;;;;;;;;;;;11.51;70.90;98616.59;5074618;28;19918;-76
2023/11/18 00:54:59;;;;;;;;;;;;;;;11.55;70.67;98617.81;5056075;28;19913;-76
2023/11/18 00:57:24;;;;;;;;;;;;;;;11.52;70.77;98618.22;5074340;28;19919;-76
2023/11/18 00:59:49;;;;;;;;;;;;;;;11.55;70.10;98620.47;5074135;28;19919;-76
2023/11/18 01:02:15;;;;;;;;;;;;;;;11.58;69.68;98619.25;5074574;28;19917;-77
2023/11/18 01:04:40;;;;;;;;;;;;;;;11.59;69.66;98615.56;5073080;28;19921;-76
2023/11/18 01:07:05;;;;;;;;;;;;;;;11.57;71.39;98602.56;5074059;28;19912;-76
2023/11/18 01:09:36;;;;;;;;;;;;;;;11.55;71.14;98603.78;5055953;28;19958;-76
2023/11/18 01:12:02;;;;;;;;;;;;;;;11.53;70.44;98604.00;5072609;28;19961;-77
2023/11/18 01:14:27;;;;;;;;;;;;;;;11.51;69.99;98603.38;5073936;28;20409;-76
2023/11/18 01:16:53;;;;;;;;;;;;;;;11.52;70.09;98605.00;5073803;28;19912;-76
2023/11/18 01:19:18;;;;;;;;;;;;;;;11.55;70.31;98601.16;5056197;28;20011;-76
2023/11/18 01:21:44;;;;;;;;;;;;;;;11.54;70.94;98604.81;5073494;28;19916;-76
2023/11/18 01:24:09;;;;;;;;;;;;;;;11.53;70.32;98601.34;5073756;28;19966;-75
2023/11/18 01:26:36;;;;;;;;;;;;;;;11.51;70.61;98608.69;5074090;28;19995;-76
2023/11/18 01:29:01;;;;;;;;;;;;;;;11.49;70.74;98610.72;5073512;28;20345;-76
2023/11/18 01:31:27;;;;;;;;;;;;;;;11.49;70.78;98620.47;5073640;28;19958;-75
2023/11/18 01:33:55;;;;;;;;;;;;;;;11.44;70.37;98624.56;5073531;28;20010;-76
2023/11/18 01:36:20;;;;;;;;;;;;;;;11.42;69.10;98618.66;5073458;28;19940;-77
2023/11/18 01:38:46;;;;;;;;;;;;;;;11.38;69.75;98619.28;5073427;28;20416;-77
2023/11/18 01:41:11;;;;;;;;;;;;;;;11.40;69.65;98609.31;5073371;28;20400;-77
2023/11/18 01:43:37;;;;;;;;;;;;;;;11.42;70.63;98610.72;5073472;28;20374;-76
2023/11/18 01:46:03;;;;;;;;;;;;;;;11.43;70.46;98601.78;5073643;28;20011;-77
2023/11/18 01:48:29;;;;;;;;;;;;;;;11.46;70.63;98595.28;5073210;28;19912;-77
2023/11/18 01:50:58;;;;;;;;;;;;;;;11.42;69.53;98586.94;5073499;28;19922;-77
2023/11/18 01:53:24;;;;;;;;;;;;;;;11.40;69.75;98573.13;5055189;28;20385;-78
2023/11/18 01:55:49;;;;;;;;;;;;;;;11.44;70.41;98568.22;5073243;28;19947;-76
2023/11/18 01:58:19;;;;;;;;;;;;;;;11.46;69.12;98564.38;5073037;28;20400;-76
2023/11/18 02:00:46;;;;;;;;;;;;;;;11.44;68.97;98560.31;5072861;28;19920;-76
2023/11/18 02:03:11;;;;;;;;;;;;;;;11.44;69.50;98549.72;5072804;28;19920;-77
2023/11/18 02:05:36;;;;;;;;;;;;;;;11.44;69.38;98555.03;5071468;28;19961;-77
2023/11/18 02:08:09;;;;;;;;;;;;;;;11.38;69.98;98540.00;5071396;28;19918;-78
2023/11/18 02:10:39;;;;;;;;;;;;;;;11.37;69.92;98546.28;5072843;28;19952;-77
2023/11/18 02:13:12;;;;;;;;;;;;;;;11.37;69.08;98554.22;5072615;28;19912;-76
2023/11/18 02:15:38;;;;;;;;;;;;;;;11.35;70.71;98561.53;5072480;28;19913;-75
2023/11/18 02:18:06;;;;;;;;;;;;;;;11.37;69.97;98562.97;5054535;28;19919;-77
2023/11/18 02:20:32;;;;;;;;;;;;;;;11.39;70.13;98565.41;5072260;28;19926;-76
2023/11/18 02:22:58;;;;;;;;;;;;;;;11.38;68.77;98582.28;5054615;28;19959;-76
2023/11/18 02:25:27;;;;;;;;;;;;;;;11.31;68.98;98594.69;5072516;28;19944;-76
2023/11/18 02:27:52;;;;;;;;;;;;;;;11.21;70.27;98592.47;5072385;28;20389;-77
2023/11/18 02:30:17;;;;;;;;;;;;;;;11.21;69.99;98589.00;5072289;28;19919;-77
2023/11/18 02:32:59;;;;;;;;;;;;;;;11.23;70.25;98582.50;5072481;28;19969;-77
2023/11/18 02:35:29;;;;;;;;;;;;;;;11.25;70.49;98580.47;5071977;28;19952;-76
2023/11/18 02:37:55;;;;;;;;;;;;;;;11.25;70.78;98595.50;5072125;28;19916;-78
2023/11/18 02:40:26;;;;;;;;;;;;;;;11.24;70.26;98585.97;5072172;28;20294;-77
2023/11/18 02:42:52;;;;;;;;;;;;;;;11.27;70.30;98575.78;5072271;28;20359;-77
2023/11/18 02:45:19;;;;;;;;;;;;;;;11.29;70.95;98572.94;5072362;28;19913;-76
2023/11/18 02:47:44;;;;;;;;;;;;;;;11.30;70.83;98572.75;5072064;28;19912;-76
2023/11/18 02:50:10;;;;;;;;;;;;;;;11.29;70.11;98567.66;5072075;28;20389;-77
2023/11/18 02:52:39;;;;;;;;;;;;;;;11.29;71.02;98571.13;5071961;28;19913;-76
2023/11/18 02:55:06;;;;;;;;;;;;;;;11.27;69.21;98575.78;5071670;28;20021;-76
2023/11/18 02:57:32;;;;;;;;;;;;;;;11.20;70.05;98577.63;5071761;28;20007;-77
2023/11/18 03:00:00;;;;;;;;;;;;;;;11.14;68.18;98581.88;5072298;28;19917;-77
2023/11/18 03:02:27;;;;;;;;;;;;;;;11.08;69.50;98584.53;5072159;28;19991;-76
2023/11/18 03:04:53;;;;;;;;;;;;;;;10.99;70.10;98585.75;5070817;28;19967;-76
2023/11/18 03:07:18;;;;;;;;;;;;;;;10.94;69.93;98591.66;5053997;28;20358;-78
2023/11/18 03:09:46;;;;;;;;;;;;;;;10.91;68.89;98594.69;5072062;28;20034;-78
2023/11/18 03:12:12;;;;;;;;;;;;;;;10.87;69.75;98575.00;5053821;28;19917;-76
2023/11/18 03:14:37;;;;;;;;;;;;;;;10.90;70.26;98566.66;5071889;28;19912;-77
2023/11/18 03:17:06;;;;;;;;;;;;;;;10.91;70.18;98565.63;5071794;28;19912;-77
2023/11/18 03:19:31;;;;;;;;;;;;;;;10.86;70.58;98567.28;5071720;28;19923;-77
2023/11/18 03:21:57;;;;;;;;;;;;;;;10.85;69.68;98587.59;5071661;28;20324;-78
2023/11/18 03:24:23;;;;;;;;;;;;;;;10.82;69.19;98593.28;5071679;28;20007;-77
2023/11/18 03:26:49;;;;;;;;;;;;;;;10.79;69.75;98599.78;5074419;28;20000;-77
2023/11/18 03:29:14;;;;;;;;;;;;;;;10.73;69.77;98608.50;5060236;28;20301;-76
2023/11/18 03:31:39;;;;;;;;;;;;;;;10.73;68.60;98597.13;5077009;28;19937;-77
2023/11/18 03:34:04;;;;;;;;;;;;;;;10.66;70.44;98586.56;5078157;28;19952;-76
2023/11/18 03:36:30;;;;;;;;;;;;;;;10.63;70.09;98579.03;5078147;28;19920;-77
2023/11/18 03:38:55;;;;;;;;;;;;;;;10.64;69.22;98585.94;5078103;28;19913;-76
2023/11/18 03:41:23;;;;;;;;;;;;;;;10.58;69.19;98585.94;5078080;28;19916;-77
2023/11/18 03:43:49;;;;;;;;;;;;;;;10.54;69.21;98587.34;5078209;28;19951;-77
2023/11/18 03:46:15;;;;;;;;;;;;;;;10.47;68.50;98579.44;5077937;28;19966;-77
2023/11/18 03:48:40;;;;;;;;;;;;;;;10.39;69.13;98588.31;5076715;28;19912;-78
2023/11/18 03:51:06;;;;;;;;;;;;;;;10.43;69.76;98580.84;5059962;28;19913;-76
2023/11/18 03:53:33;;;;;;;;;;;;;;;10.41;69.43;98572.31;5078036;28;19912;-76
2023/11/18 03:55:59;;;;;;;;;;;;;;;10.44;69.73;98579.84;5077929;28;19917;-78
2023/11/18 03:58:24;;;;;;;;;;;;;;;10.37;69.01;98576.34;5078055;28;20007;-77
2023/11/18 04:00:49;;;;;;;;;;;;;;;10.34;68.62;98572.28;5078166;28;20395;-76
2023/11/18 04:03:15;;;;;;;;;;;;;;;10.27;68.60;98584.63;5077971;28;19932;-77
2023/11/18 04:05:40;;;;;;;;;;;;;;;10.21;69.13;98585.44;5076632;28;19912;-77
2023/11/18 04:08:06;;;;;;;;;;;;;;;10.17;69.33;98600.81;5078061;28;19919;-78
2023/11/18 04:10:31;;;;;;;;;;;;;;;10.14;68.68;98595.13;5077969;28;20377;-77
2023/11/18 04:12:58;;;;;;;;;;;;;;;9.98;68.99;98577.03;5077634;28;20300;-76
2023/11/18 04:15:24;;;;;;;;;;;;;;;10.00;69.68;98573.16;5078545;28;20401;-78
2023/11/18 04:17:49;;;;;;;;;;;;;;;9.97;68.25;98564.84;5060148;28;19912;-77
2023/11/18 04:20:15;;;;;;;;;;;;;;;9.87;68.12;98539.66;5077965;28;19916;-76
2023/11/18 04:22:41;;;;;;;;;;;;;;;9.86;68.26;98518.78;5078106;28;19959;-75
2023/11/18 04:25:10;;;;;;;;;;;;;;;9.72;68.77;98523.19;5078206;28;19913;-77
2023/11/18 04:27:36;;;;;;;;;;;;;;;9.76;67.87;98524.41;5078206;28;20374;-76
2023/11/18 04:30:01;;;;;;;;;;;;;;;9.71;68.74;98529.47;5077801;28;19919;-76
2023/11/18 04:32:26;;;;;;;;;;;;;;;9.73;67.75;98542.47;5077839;28;19944;-77
2023/11/18 04:34:52;;;;;;;;;;;;;;;9.69;69.13;98543.84;5078054;28;19912;-77
2023/11/18 04:37:17;;;;;;;;;;;;;;;9.61;68.02;98562.44;5077683;28;20344;-76
2023/11/18 04:39:43;;;;;;;;;;;;;;;9.56;68.55;98566.47;5072287;28;19944;-76
2023/11/18 04:42:08;;;;;;;;;;;;;;;9.51;68.34;98586.50;5056499;28;20382;-77
2023/11/18 04:44:34;;;;;;;;;;;;;;;9.45;68.05;98592.56;5074935;28;20309;-77
2023/11/18 04:46:59;;;;;;;;;;;;;;;9.49;68.37;98604.34;5074590;28;19913;-76
2023/11/18 04:49:24;;;;;;;;;;;;;;;9.43;68.50;98615.66;5074569;28;19921;-76
2023/11/18 04:51:50;;;;;;;;;;;;;;;9.48;67.99;98600.91;5074363;28;19927;-76
2023/11/18 04:54:15;;;;;;;;;;;;;;;9.48;67.91;98579.00;5074168;28;19916;-76
2023/11/18 04:56:41;;;;;;;;;;;;;;;9.36;67.81;98578.72;5074663;28;19912;-76
2023/11/18 04:59:06;;;;;;;;;;;;;;;9.17;68.56;98577.59;5074101;28;20004;-76
2023/11/18 05:01:32;;;;;;;;;;;;;;;9.11;68.28;98577.56;5074054;28;20011;-76
2023/11/18 05:03:57;;;;;;;;;;;;;;;9.15;67.99;98563.81;5074025;28;19977;-75
2023/11/18 05:06:22;;;;;;;;;;;;;;;9.16;67.58;98568.06;5074388;28;19916;-77
2023/11/18 05:08:48;;;;;;;;;;;;;;;9.08;67.71;98568.22;5074170;28;19912;-76
2023/11/18 05:11:13;;;;;;;;;;;;;;;9.08;67.69;98578.75;5073949;28;19912;-77
2023/11/18 05:13:40;;;;;;;;;;;;;;;9.08;67.76;98578.75;5073080;28;20290;-76
2023/11/18 05:16:05;;;;;;;;;;;;;;;9.09;67.70;98590.09;5074176;28;20003;-77
2023/11/18 05:18:35;;;;;;;;;;;;;;;9.09;66.95;98582.19;5073804;28;19999;-75
2023/11/18 05:21:01;;;;;;;;;;;;;;;9.10;67.31;98581.19;5073819;28;19939;-77
2023/11/18 05:23:29;;;;;;;;;;;;;;;9.08;66.65;98583.22;5073890;28;20024;-77
2023/11/18 05:25:55;;;;;;;;;;;;;;;9.05;66.73;98586.22;5073700;28;20289;-76
2023/11/18 05:28:21;;;;;;;;;;;;;;;9.02;66.62;98589.25;5073667;28;19912;-78
2023/11/18 05:30:47;;;;;;;;;;;;;;;9.05;65.95;98573.06;5073777;28;19912;-77
2023/11/18 05:33:17;;;;;;;;;;;;;;;9.10;66.10;98573.28;5073683;28;19913;-76
2023/11/18 05:35:48;;;;;;;;;;;;;;;9.09;66.33;98569.84;5072199;28;20294;-75
2023/11/18 05:38:16;;;;;;;;;;;;;;;9.12;66.01;98563.38;5072027;28;19940;-76
2023/11/18 05:40:43;;;;;;;;;;;;;;;9.14;65.97;98556.09;5073632;28;19920;-76
2023/11/18 05:43:15;;;;;;;;;;;;;;;9.17;65.84;98564.44;5073465;28;19912;-75
2023/11/18 05:46:12;;;;;;;;;;;;;;;9.14;65.83;98566.63;5055406;28;19919;-76
2023/11/18 05:48:26;;;;;;;;;;;;;;;9.08;65.95;98591.09;5073385;28;19916;-75
2023/11/18 05:50:51;;;;;;;;;;;;;;;9.10;65.41;98587.28;5073197;28;20351;-76
2023/11/18 05:53:16;;;;;;;;;;;;;;;9.08;65.62;98572.69;5073325;28;19917;-75
2023/11/18 05:55:42;;;;;;;;;;;;;;;9.01;65.79;98585.78;5073393;28;20007;-76
2023/11/18 05:58:08;;;;;;;;;;;;;;;9.02;65.60;98589.25;5073191;28;19913;-75
2023/11/18 06:00:34;;;;;;;;;;;;;;;8.98;65.84;98603.78;5072740;28;19917;-76
2023/11/18 06:03:00;;;;;;;;;;;;;;;8.94;65.29;98605.19;5054729;28;20025;-76
2023/11/18 06:05:26;;;;;;;;;;;;;;;8.92;65.34;98600.09;5072858;28;19922;-76
2023/11/18 06:07:51;;;;;;;;;;;;;;;8.88;64.71;98599.63;5072846;28;20389;-76
2023/11/18 06:10:16;;;;;;;;;;;;;;;8.87;65.00;98586.66;5072875;28;19919;-75
2023/11/18 06:12:41;;;;;;;;;;;;;;;8.92;64.67;98597.47;5072710;28;20286;-76
2023/11/18 06:15:09;;;;;;;;;;;;;;;8.84;64.78;98590.50;5072571;28;19936;-76
2023/11/18 06:17:34;;;;;;;;;;;;;;;8.84;64.44;98593.13;5072520;28;20308;-76
2023/11/18 06:19:59;;;;;;;;;;;;;;;8.83;63.91;98585.41;5072639;28;20003;-76
2023/11/18 06:22:25;;;;;;;;;;;;;;;8.75;63.41;98570.59;5072573;28;19919;-77
2023/11/18 06:24:51;;;;;;;;;;;;;;;8.77;63.70;98571.19;5072527;28;19913;-76
2023/11/18 06:27:18;;;;;;;;;;;;;;;8.70;62.74;98561.63;5072432;28;19913;-76
2023/11/18 06:29:43;;;;;;;;;;;;;;;8.69;62.90;98552.91;5072600;28;20370;-77
2023/11/18 06:32:08;;;;;;;;;;;;;;;8.68;63.16;98564.44;5072336;28;19920;-76
2023/11/18 06:34:33;;;;;;;;;;;;;;;8.66;62.65;98579.59;5072313;28;19912;-76
2023/11/18 06:36:59;;;;;;;;;;;;;;;8.64;63.03;98589.50;5072268;28;19919;-75
2023/11/18 06:39:29;;;;;;;;;;;;;;;8.62;62.47;98602.03;5072459;28;19916;-76
2023/11/18 06:41:55;;;;;;;;;;;;;;;8.65;62.43;98599.03;5072253;28;19930;-76
2023/11/18 06:44:23;;;;;;;;;;;;;;;8.63;62.39;98606.31;5072107;28;19912;-77
2023/11/18 06:46:50;;;;;;;;;;;;;;;8.58;61.39;98595.53;5072099;28;19913;-76
2023/11/18 06:49:16;;;;;;;;;;;;;;;8.53;61.15;98592.66;5072322;28;20275;-76
2023/11/18 06:51:41;;;;;;;;;;;;;;;8.49;60.83;98588.75;5071772;28;19970;-76
2023/11/18 06:54:10;;;;;;;;;;;;;;;8.55;61.02;98595.91;5071873;28;19919;-76
2023/11/18 06:56:44;;;;;;;;;;;;;;;8.55;60.79;98609.06;5053862;28;20006;-77
2023/11/18 06:59:12;;;;;;;;;;;;;;;8.55;60.57;98612.50;5054013;28;19966;-77
2023/11/18 07:01:37;;;;;;;;;;;;;;;8.49;60.06;98617.69;5053368;28;20008;-76
2023/11/18 07:04:03;;;;;;;;;;;;;;;8.44;59.91;98622.72;5071992;28;20007;-76
2023/11/18 07:06:28;;;;;;;;;;;;;;;8.54;60.42;98625.84;5071802;28;19920;-76
2023/11/18 07:08:55;;;;;;;;;;;;;;;8.47;59.66;98609.19;5072005;28;19912;-76
2023/11/18 07:11:23;;;;;;;;;;;;;;;8.51;58.94;98628.84;5053786;28;20393;-76
2023/11/18 07:13:49;;;;;;;;;;;;;;;8.42;58.21;98616.81;5071848;28;19912;-75
2023/11/18 07:16:14;;;;;;;;;;;;;;;8.43;58.85;98608.75;5072202;28;19991;-75
2023/11/18 07:18:40;;;;;;;;;;;;;;;8.39;58.31;98606.69;5072149;28;20003;-76
2023/11/18 07:21:05;;;;;;;;;;;;;;;8.44;58.18;98597.22;5070569;28;19923;-76
2023/11/18 07:23:31;;;;;;;;;;;;;;;8.39;58.37;98589.06;5071941;28;19912;-76
2023/11/18 07:25:57;;;;;;;;;;;;;;;8.38;57.64;98582.19;5071800;28;19913;-76
2023/11/18 07:28:22;;;;;;;;;;;;;;;8.31;58.04;98597.06;5071857;28;20320;-75
2023/11/18 07:30:48;;;;;;;;;;;;;;;8.29;58.11;98589.34;5071493;28;19913;-76
2023/11/18 07:33:17;;;;;;;;;;;;;;;8.33;57.43;98574.03;5070364;28;19912;-75
2023/11/18 07:35:48;;;;;;;;;;;;;;;8.27;57.43;98574.75;5071648;28;19920;-76
2023/11/18 07:38:14;;;;;;;;;;;;;;;8.28;57.08;98574.56;5071640;28;19919;-77
2023/11/18 07:40:45;;;;;;;;;;;;;;;8.34;57.43;98575.69;5071502;28;20301;-76
2023/11/18 07:43:11;;;;;;;;;;;;;;;8.34;57.04;98572.22;5071527;28;19996;-77
2023/11/18 07:45:39;;;;;;;;;;;;;;;8.32;57.00;98555.78;5053610;28;19951;-75
2023/11/18 07:48:08;;;;;;;;;;;;;;;8.27;57.15;98553.72;5071716;28;19970;-76
2023/11/18 07:50:34;;;;;;;;;;;;;;;8.19;56.59;98541.50;5053627;28;20304;-75
2023/11/18 07:52:59;;;;;;;;;;;;;;;8.26;57.11;98557.34;5071566;28;19927;-76
2023/11/18 07:55:25;;;;;;;;;;;;;;;8.24;56.30;98559.34;5071488;28;19917;-76
2023/11/18 07:57:50;;;;;;;;;;;;;;;8.17;56.24;98554.00;5071509;28;19912;-76
2023/11/18 08:00:15;;;;;;;;;;;;;;;8.28;56.21;98555.34;5071265;28;20007;-77
2023/11/18 13:19:51;;;;;;;;;;;;;;;9.61;45.88;98533.44;5053957;28;19927;-78
2023/11/18 13:22:19;;;;;;;;;;;;;;;9.60;45.77;98539.72;5053646;28;19967;-78
2023/11/18 13:24:44;;;;;;;;;;;;;;;9.55;45.79;98543.78;5053744;28;20008;-78
2023/11/18 13:27:10;;;;;;;;;;;;;;;9.55;45.87;98550.88;5053431;28;19955;-78
2023/11/18 13:29:36;;;;;;;;;;;;;;;9.56;46.33;98553.31;5053434;28;19913;-77
2023/11/18 13:32:06;;;;;;;;;;;;;;;9.55;46.49;98575.38;5035541;28;19920;-78
2023/11/18 13:34:38;;;;;;;;;;;;;;;9.42;46.44;98561.34;5053335;28;19961;-77
2023/11/18 13:37:04;;;;;;;;;;;;;;;9.46;46.29;98550.22;5053161;28;19912;-78
2023/11/18 13:39:31;;;;;;;;;;;;;;;9.47;45.80;98558.94;5053463;28;20497;-77
2023/11/18 13:41:56;;;;;;;;;;;;;;;9.48;46.21;98586.91;5053284;28;19971;-78
2023/11/18 13:44:34;;;;;;;;;;;;;;;9.46;45.96;98573.13;5053235;28;19913;-77
2023/11/18 13:46:59;;;;;;;;;;;;;;;9.42;46.21;98599.03;5053273;28;19916;-78
2023/11/18 13:49:27;;;;;;;;;;;;;;;9.38;45.71;98597.78;5053115;28;19920;-78
2023/11/18 13:51:53;;;;;;;;;;;;;;;9.39;46.08;98615.22;5053112;28;20284;-78
2023/11/18 13:54:18;;;;;;;;;;;;;;;9.27;45.46;98592.25;5053202;28;19919;-78
2023/11/18 13:56:43;;;;;;;;;;;;;;;9.30;45.73;98629.56;5034982;28;19913;-78
2023/11/18 13:59:09;;;;;;;;;;;;;;;9.23;45.92;98590.00;5053027;28;20298;-77
2023/11/18 14:01:37;;;;;;;;;;;;;;;9.18;45.66;98575.78;5053347;28;19916;-78
2023/11/18 14:04:04;;;;;;;;;;;;;;;9.12;45.87;98576.56;5053345;28;19913;-77
2023/11/18 14:06:30;;;;;;;;;;;;;;;9.21;46.11;98563.03;5053236;28;19962;-77
2023/11/18 14:08:55;;;;;;;;;;;;;;;9.26;45.95;98585.34;5053182;28;19920;-78
2023/11/18 14:11:21;;;;;;;;;;;;;;;9.23;45.85;98589.19;5053104;28;19912;-78
2023/11/18 14:13:46;;;;;;;;;;;;;;;9.18;45.77;98568.69;5034972;28;19913;-77
2023/11/18 14:16:12;;;;;;;;;;;;;;;9.15;45.63;98592.78;5052900;28;19916;-77
2023/11/18 14:18:41;;;;;;;;;;;;;;;9.12;46.26;98587.91;5063094;28;19927;-77
2023/11/18 14:21:06;;;;;;;;;;;;;;;9.19;46.15;98588.75;5054792;28;19916;-77
2023/11/18 14:23:31;;;;;;;;;;;;;;;9.21;46.15;98599.09;5072775;28;19970;-77
2023/11/18 14:25:57;;;;;;;;;;;;;;;9.27;45.98;98613.31;5072790;28;20301;-77
2023/11/18 14:28:26;;;;;;;;;;;;;;;9.13;46.14;98651.91;5072591;28;19919;-77
2023/11/18 14:30:51;;;;;;;;;;;;;;;9.15;45.40;98629.66;5072635;28;20396;-78
2023/11/18 14:33:17;;;;;;;;;;;;;;;9.05;45.45;98617.81;5072820;28;19909;-77
2023/11/18 14:35:45;;;;;;;;;;;;;;;9.08;45.88;98614.81;5072759;28;20416;-77
2023/11/18 14:38:12;;;;;;;;;;;;;;;9.03;45.79;98619.84;5072479;28;19913;-77
2023/11/18 14:40:39;;;;;;;;;;;;;;;8.97;45.80;98599.53;5072687;28;19942;-77
2023/11/18 14:43:05;;;;;;;;;;;;;;;8.89;46.25;98618.88;5072477;28;19965;-77
2023/11/18 14:45:30;;;;;;;;;;;;;;;8.79;46.32;98598.16;5072554;28;20033;-78
2023/11/18 14:47:55;;;;;;;;;;;;;;;8.84;46.31;98613.38;5072734;28;20002;-77
2023/11/18 14:50:21;;;;;;;;;;;;;;;8.86;46.50;98603.47;5054490;28;19913;-77
2023/11/18 14:52:51;;;;;;;;;;;;;;;8.83;46.34;98643.31;5072216;28;20066;-77
2023/11/18 14:55:17;;;;;;;;;;;;;;;8.83;46.45;98609.09;5054169;28;19912;-78
2023/11/18 14:57:43;;;;;;;;;;;;;;;8.82;46.73;98623.28;5072221;28;19912;-78
2023/11/18 15:00:11;;;;;;;;;;;;;;;8.77;46.60;98617.75;5072157;28;19916;-78
2023/11/18 15:02:36;;;;;;;;;;;;;;;8.66;46.88;98619.09;5053787;28;20313;-77
2023/11/18 15:05:06;;;;;;;;;;;;;;;8.62;46.68;98609.13;5071843;28;19913;-78
2023/11/18 15:07:31;;;;;;;;;;;;;;;8.59;46.87;98620.84;5071778;28;19952;-77
2023/11/18 15:09:57;;;;;;;;;;;;;;;8.55;47.06;98624.84;5071868;28;19913;-77
2023/11/18 15:12:22;;;;;;;;;;;;;;;8.51;47.09;98621.78;5071770;28;19922;-78
2023/11/18 15:14:49;;;;;;;;;;;;;;;8.47;46.97;98623.16;5054015;28;19913;-78
2023/11/18 15:17:14;;;;;;;;;;;;;;;8.43;47.19;98642.13;5072239;28;20393;-79
2023/11/18 15:19:39;;;;;;;;;;;;;;;8.51;47.07;98655.16;5071657;28;19928;-78
2023/11/18 15:22:05;;;;;;;;;;;;;;;8.33;47.64;98620.53;5069832;28;19928;-78
2023/11/18 15:24:32;;;;;;;;;;;;;;;8.42;47.65;98628.16;5072256;28;20410;-77
2023/11/18 15:27:00;;;;;;;;;;;;;;;8.41;47.18;98647.56;5071894;28;20058;-79
2023/11/18 15:29:31;;;;;;;;;;;;;;;8.44;47.46;98638.50;5072011;28;19912;-78
2023/11/18 15:31:56;;;;;;;;;;;;;;;8.32;47.51;98642.59;5071890;28;19913;-77
2023/11/18 15:34:22;;;;;;;;;;;;;;;8.34;47.38;98635.34;5071885;28;19912;-77
2023/11/18 15:36:47;;;;;;;;;;;;;;;8.35;47.53;98640.41;5071763;28;19913;-77
2023/11/18 15:39:14;;;;;;;;;;;;;;;8.35;47.62;98655.38;5071767;28;19974;-77
2023/11/18 15:41:41;;;;;;;;;;;;;;;8.35;47.85;98629.09;5071670;28;19939;-78
2023/11/18 15:44:07;;;;;;;;;;;;;;;8.26;48.11;98673.88;5071619;28;19952;-78
2023/11/18 15:46:34;;;;;;;;;;;;;;;8.23;47.82;98640.06;5071449;28;20399;-78
2023/11/18 15:49:01;;;;;;;;;;;;;;;8.25;47.99;98651.22;5071598;28;19944;-78
2023/11/18 15:51:28;;;;;;;;;;;;;;;8.13;48.42;98654.47;5072054;28;19916;-77
2023/11/18 15:53:54;;;;;;;;;;;;;;;8.22;48.00;98643.69;5053443;28;20014;-77
2023/11/18 15:56:19;;;;;;;;;;;;;;;8.12;48.42;98648.41;5071761;28;19912;-78
2023/11/18 15:58:46;;;;;;;;;;;;;;;8.21;48.53;98649.94;5071425;28;20447;-77
2023/11/18 16:01:12;;;;;;;;;;;;;;;8.21;48.65;98657.84;5053677;28;19999;-77
2023/11/18 16:03:37;;;;;;;;;;;;;;;8.18;48.34;98667.91;5071758;28;19912;-77
2023/11/18 16:06:03;;;;;;;;;;;;;;;8.15;48.58;98679.56;5071525;28;19913;-78
2023/11/18 16:08:29;;;;;;;;;;;;;;;8.17;48.95;98669.69;5071498;28;19913;-78
2023/11/18 16:10:54;;;;;;;;;;;;;;;8.11;49.00;98640.69;5071414;28;19970;-77
2023/11/18 16:13:20;;;;;;;;;;;;;;;8.10;49.00;98663.53;5053350;28;19969;-77
2023/11/18 16:15:45;;;;;;;;;;;;;;;8.10;49.12;98668.78;5071390;28;19919;-77
2023/11/18 16:18:10;;;;;;;;;;;;;;;8.13;49.03;98667.63;5071550;28;20029;-77
2023/11/18 16:20:37;;;;;;;;;;;;;;;8.03;49.33;98670.53;5070101;28;19912;-78
2023/11/18 16:23:02;;;;;;;;;;;;;;;8.04;49.41;98672.16;5071631;28;19916;-77
2023/11/18 16:25:29;;;;;;;;;;;;;;;8.00;49.57;98647.25;5071571;28;20453;-77
2023/11/18 16:27:56;;;;;;;;;;;;;;;7.95;49.96;98668.00;5071535;28;20022;-78
2023/11/18 16:30:24;;;;;;;;;;;;;;;7.94;49.67;98653.22;5071019;28;20411;-78
2023/11/18 16:32:50;;;;;;;;;;;;;;;7.95;49.92;98657.47;5071160;28;19917;-78
2023/11/18 16:35:16;;;;;;;;;;;;;;;7.87;49.91;98674.16;5074653;28;20397;-78
2023/11/18 16:37:42;;;;;;;;;;;;;;;7.96;49.67;98673.06;5056738;28;19919;-79
2023/11/18 16:40:13;;;;;;;;;;;;;;;7.87;50.30;98652.31;5056647;28;19912;-79
2023/11/18 16:42:49;;;;;;;;;;;;;;;7.84;50.47;98653.50;5074356;28;19916;-78
2023/11/18 16:45:15;;;;;;;;;;;;;;;7.76;50.24;98676.44;5074767;28;19912;-78
2023/11/18 16:47:41;;;;;;;;;;;;;;;7.77;50.48;98643.91;5074627;28;19919;-79
2023/11/18 16:50:14;;;;;;;;;;;;;;;7.82;50.40;98684.41;5074587;28;19962;-77
2023/11/18 16:52:39;;;;;;;;;;;;;;;7.72;50.36;98665.47;5074374;28;20386;-78
2023/11/18 16:55:05;;;;;;;;;;;;;;;7.82;50.06;98713.31;5074169;28;19912;-78
2023/11/18 16:57:30;;;;;;;;;;;;;;;7.73;50.54;98676.78;5056511;28;19924;-78
2023/11/18 16:59:56;;;;;;;;;;;;;;;7.78;50.63;98677.06;5074503;28;20024;-78
2023/11/18 17:02:24;;;;;;;;;;;;;;;7.79;50.65;98676.06;5074236;28;20510;-78
2023/11/18 17:04:49;;;;;;;;;;;;;;;7.83;50.61;98690.47;5074738;28;19912;-78
2023/11/18 17:07:15;;;;;;;;;;;;;;;7.82;50.03;98736.16;5056373;28;19916;-77
2023/11/18 17:09:40;;;;;;;;;;;;;;;7.71;50.40;98678.78;5056184;28;20003;-78
2023/11/18 17:12:06;;;;;;;;;;;;;;;7.75;50.42;98694.00;5074187;28;19999;-77
2023/11/18 17:14:31;;;;;;;;;;;;;;;7.74;50.73;98696.81;5074399;28;19940;-79
2023/11/18 17:16:56;;;;;;;;;;;;;;;7.71;50.38;98697.19;5074049;28;19935;-77
2023/11/18 17:19:22;;;;;;;;;;;;;;;7.65;51.03;98686.41;5073552;28;19920;-78
2023/11/18 17:21:47;;;;;;;;;;;;;;;7.72;50.98;98699.63;5055794;28;19916;-78
2023/11/18 17:24:13;;;;;;;;;;;;;;;7.67;51.23;98712.50;5055811;28;20461;-78
2023/11/18 17:26:39;;;;;;;;;;;;;;;7.69;50.49;98704.44;5073584;28;19912;-78
2023/11/18 17:29:05;;;;;;;;;;;;;;;7.68;50.56;98729.06;5073891;28;19999;-77
2023/11/18 17:31:31;;;;;;;;;;;;;;;7.59;50.67;98762.47;5073884;28;20374;-77
2023/11/18 17:33:56;;;;;;;;;;;;;;;7.68;51.10;98708.88;5073820;28;19912;-77
2023/11/18 17:36:23;;;;;;;;;;;;;;;7.74;51.04;98710.78;5055638;28;20416;-78
2023/11/18 17:38:48;;;;;;;;;;;;;;;7.60;51.24;98725.53;5073747;28;19912;-77
2023/11/18 17:41:13;;;;;;;;;;;;;;;7.47;51.80;98735.00;5073757;28;20038;-77
2023/11/18 17:43:39;;;;;;;;;;;;;;;7.53;51.30;98715.91;5073351;28;19981;-78
2023/11/18 17:46:04;;;;;;;;;;;;;;;7.53;51.27;98729.03;5072813;28;19913;-79
2023/11/18 17:48:30;;;;;;;;;;;;;;;7.53;51.66;98731.69;5073411;28;20003;-78
2023/11/18 17:50:58;;;;;;;;;;;;;;;7.50;51.82;98714.47;5073262;28;19923;-78
2023/11/18 17:53:24;;;;;;;;;;;;;;;7.54;52.02;98723.63;5055262;28;19924;-78
2023/11/18 17:55:49;;;;;;;;;;;;;;;7.52;51.41;98727.41;5071727;28;19912;-78
2023/11/18 17:58:14;;;;;;;;;;;;;;;7.62;51.81;98747.19;5055036;28;19912;-77
2023/11/18 18:00:40;;;;;;;;;;;;;;;7.69;51.16;98725.44;5072794;28;19920;-78
2023/11/18 18:03:06;;;;;;;;;;;;;;;7.57;51.08;98731.13;5072955;28;19913;-77
2023/11/18 18:05:32;;;;;;;;;;;;;;;7.58;51.50;98724.88;5071644;28;19912;-78